sensor_id;sensor_type;location;lat;lon;timestamp;P1;durP1;ratioP1;P2;durP2;ratioP2
60336;SDS011;46978;50.288;28.624;2023-06-26T00:00:15;7.87;;;4.51;;
60336;SDS011;46978;50.288;28.624;2023-06-26T00:01:17;8.31;;;4.21;;
60336;SDS011;46978;50.288;28.624;2023-06-26T00:02:19;7.20;;;4.12;;
60336;SDS011;46978;50.288;28.624;2023-06-26T00:03:20;6.01;;;4.09;;
60336;SDS011;46978;50.288;28.624;2023-06-26T00:04:22;7.71;;;4.49;;
60336;SDS011;46978;50.288;28.624;2023-06-26T00:05:23;6.71;;;4.52;;
60336;SDS011;46978;50.288;28.624;2023-06-26T00:06:25;7.34;;;4.32;;
60336;SDS011;46978;50.288;28.624;2023-06-26T00:07:27;6.13;;;4.13;;
60336;SDS011;46978;50.288;28.624;2023-06-26T00:08:32;6.26;;;4.32;;
60336;SDS011;46978;50.288;28.624;2023-06-26T00:09:34;7.04;;;4.47;;
60336;SDS011;46978;50.288;28.624;2023-06-26T00:10:35;6.71;;;4.34;;
60336;SDS011;46978;50.288;28.624;2023-06-26T00:11:37;6.85;;;4.41;;
60336;SDS011;46978;50.288;28.624;2023-06-26T00:12:38;6.19;;;4.30;;
60336;SDS011;46978;50.288;28.624;2023-06-26T00:13:40;7.24;;;4.51;;
60336;SDS011;46978;50.288;28.624;2023-06-26T00:14:42;8.51;;;4.31;;
60336;SDS011;46978;50.288;28.624;2023-06-26T00:15:43;8.12;;;4.67;;
60336;SDS011;46978;50.288;28.624;2023-06-26T00:16:45;6.77;;;4.53;;
60336;SDS011;46978;50.288;28.624;2023-06-26T00:17:46;7.64;;;4.15;;
60336;SDS011;46978;50.288;28.624;2023-06-26T00:18:48;7.21;;;4.96;;
60336;SDS011;46978;50.288;28.624;2023-06-26T00:19:49;7.14;;;4.53;;
60336;SDS011;46978;50.288;28.624;2023-06-26T00:20:52;7.13;;;4.81;;
60336;SDS011;46978;50.288;28.624;2023-06-26T00:21:53;8.22;;;4.90;;
60336;SDS011;46978;50.288;28.624;2023-06-26T00:22:55;7.71;;;4.87;;
60336;SDS011;46978;50.288;28.624;2023-06-26T00:23:57;8.79;;;5.17;;
60336;SDS011;46978;50.288;28.624;2023-06-26T00:24:58;7.39;;;5.04;;
60336;SDS011;46978;50.288;28.624;2023-06-26T00:26:00;7.50;;;5.19;;
60336;SDS011;46978;50.288;28.624;2023-06-26T00:27:01;7.54;;;5.06;;
60336;SDS011;46978;50.288;28.624;2023-06-26T00:28:03;7.66;;;5.11;;
60336;SDS011;46978;50.288;28.624;2023-06-26T00:29:04;9.70;;;5.25;;
60336;SDS011;46978;50.288;28.624;2023-06-26T00:30:07;7.11;;;4.89;;
60336;SDS011;46978;50.288;28.624;2023-06-26T00:31:09;8.89;;;5.35;;
60336;SDS011;46978;50.288;28.624;2023-06-26T00:32:11;7.64;;;5.13;;
60336;SDS011;46978;50.288;28.624;2023-06-26T00:33:12;9.19;;;5.60;;
60336;SDS011;46978;50.288;28.624;2023-06-26T00:34:14;8.58;;;5.90;;
60336;SDS011;46978;50.288;28.624;2023-06-26T00:35:16;13.16;;;5.03;;
60336;SDS011;46978;50.288;28.624;2023-06-26T00:36:18;7.79;;;4.97;;
60336;SDS011;46978;50.288;28.624;2023-06-26T00:37:20;8.39;;;4.95;;
60336;SDS011;46978;50.288;28.624;2023-06-26T00:38:21;8.71;;;4.91;;
60336;SDS011;46978;50.288;28.624;2023-06-26T00:39:23;6.86;;;4.80;;
60336;SDS011;46978;50.288;28.624;2023-06-26T00:40:24;7.81;;;5.20;;
60336;SDS011;46978;50.288;28.624;2023-06-26T00:41:26;7.25;;;5.37;;
60336;SDS011;46978;50.288;28.624;2023-06-26T00:42:28;9.62;;;5.78;;
60336;SDS011;46978;50.288;28.624;2023-06-26T00:43:29;8.23;;;5.56;;
60336;SDS011;46978;50.288;28.624;2023-06-26T00:44:31;8.07;;;5.47;;
60336;SDS011;46978;50.288;28.624;2023-06-26T00:45:32;10.17;;;5.81;;
60336;SDS011;46978;50.288;28.624;2023-06-26T00:46:34;8.40;;;5.63;;
60336;SDS011;46978;50.288;28.624;2023-06-26T00:47:36;8.39;;;5.85;;
60336;SDS011;46978;50.288;28.624;2023-06-26T00:48:39;10.14;;;5.94;;
60336;SDS011;46978;50.288;28.624;2023-06-26T00:49:45;9.66;;;6.24;;
60336;SDS011;46978;50.288;28.624;2023-06-26T00:50:47;8.71;;;6.03;;
60336;SDS011;46978;50.288;28.624;2023-06-26T00:51:48;9.21;;;6.12;;
60336;SDS011;46978;50.288;28.624;2023-06-26T00:52:50;10.93;;;6.47;;
60336;SDS011;46978;50.288;28.624;2023-06-26T00:53:52;11.33;;;6.79;;
60336;SDS011;46978;50.288;28.624;2023-06-26T00:54:54;8.23;;;5.76;;
60336;SDS011;46978;50.288;28.624;2023-06-26T00:55:57;9.16;;;6.56;;
60336;SDS011;46978;50.288;28.624;2023-06-26T00:57:00;9.77;;;6.48;;
60336;SDS011;46978;50.288;28.624;2023-06-26T00:58:01;10.55;;;6.27;;
60336;SDS011;46978;50.288;28.624;2023-06-26T00:59:03;10.09;;;6.33;;
60336;SDS011;46978;50.288;28.624;2023-06-26T01:00:05;8.34;;;6.37;;
60336;SDS011;46978;50.288;28.624;2023-06-26T01:01:08;9.26;;;6.30;;
60336;SDS011;46978;50.288;28.624;2023-06-26T01:02:09;8.97;;;6.01;;
60336;SDS011;46978;50.288;28.624;2023-06-26T01:03:11;9.61;;;6.75;;
60336;SDS011;46978;50.288;28.624;2023-06-26T01:04:13;8.74;;;6.48;;
60336;SDS011;46978;50.288;28.624;2023-06-26T01:05:15;10.35;;;6.65;;
60336;SDS011;46978;50.288;28.624;2023-06-26T01:06:17;9.42;;;6.51;;
60336;SDS011;46978;50.288;28.624;2023-06-26T01:07:22;11.57;;;6.47;;
60336;SDS011;46978;50.288;28.624;2023-06-26T01:08:25;9.78;;;6.13;;
60336;SDS011;46978;50.288;28.624;2023-06-26T01:09:27;9.35;;;6.59;;
60336;SDS011;46978;50.288;28.624;2023-06-26T01:10:30;10.39;;;7.25;;
60336;SDS011;46978;50.288;28.624;2023-06-26T01:11:32;9.85;;;6.75;;
60336;SDS011;46978;50.288;28.624;2023-06-26T01:12:34;9.24;;;6.81;;
60336;SDS011;46978;50.288;28.624;2023-06-26T01:13:37;10.20;;;6.87;;
60336;SDS011;46978;50.288;28.624;2023-06-26T01:14:40;9.50;;;6.76;;
60336;SDS011;46978;50.288;28.624;2023-06-26T01:15:42;9.23;;;6.52;;
60336;SDS011;46978;50.288;28.624;2023-06-26T01:16:44;9.57;;;7.07;;
60336;SDS011;46978;50.288;28.624;2023-06-26T01:17:48;9.62;;;6.54;;
60336;SDS011;46978;50.288;28.624;2023-06-26T01:18:52;9.72;;;7.14;;
60336;SDS011;46978;50.288;28.624;2023-06-26T01:19:54;9.07;;;6.23;;
60336;SDS011;46978;50.288;28.624;2023-06-26T01:20:56;10.57;;;6.48;;
60336;SDS011;46978;50.288;28.624;2023-06-26T01:24:24;9.64;;;6.50;;
60336;SDS011;46978;50.288;28.624;2023-06-26T01:26:51;9.66;;;6.96;;
60336;SDS011;46978;50.288;28.624;2023-06-26T01:27:53;9.32;;;6.69;;
60336;SDS011;46978;50.288;28.624;2023-06-26T01:28:57;9.83;;;6.09;;
60336;SDS011;46978;50.288;28.624;2023-06-26T01:30:01;10.04;;;6.63;;
60336;SDS011;46978;50.288;28.624;2023-06-26T01:31:04;10.84;;;6.39;;
60336;SDS011;46978;50.288;28.624;2023-06-26T01:32:07;9.92;;;6.27;;
60336;SDS011;46978;50.288;28.624;2023-06-26T01:33:09;9.46;;;6.23;;
60336;SDS011;46978;50.288;28.624;2023-06-26T01:34:14;10.05;;;6.29;;
60336;SDS011;46978;50.288;28.624;2023-06-26T01:35:18;10.04;;;6.42;;
60336;SDS011;46978;50.288;28.624;2023-06-26T01:36:21;11.12;;;7.01;;
60336;SDS011;46978;50.288;28.624;2023-06-26T01:37:23;8.81;;;6.24;;
60336;SDS011;46978;50.288;28.624;2023-06-26T01:38:24;8.81;;;5.78;;
60336;SDS011;46978;50.288;28.624;2023-06-26T01:39:26;8.65;;;6.09;;
60336;SDS011;46978;50.288;28.624;2023-06-26T01:40:28;9.68;;;6.56;;
60336;SDS011;46978;50.288;28.624;2023-06-26T01:41:29;9.83;;;6.86;;
60336;SDS011;46978;50.288;28.624;2023-06-26T01:42:32;9.73;;;6.64;;
60336;SDS011;46978;50.288;28.624;2023-06-26T01:43:51;11.19;;;6.96;;
60336;SDS011;46978;50.288;28.624;2023-06-26T01:44:51;9.96;;;6.59;;
60336;SDS011;46978;50.288;28.624;2023-06-26T01:46:01;9.42;;;6.59;;
60336;SDS011;46978;50.288;28.624;2023-06-26T01:47:02;8.89;;;6.82;;
60336;SDS011;46978;50.288;28.624;2023-06-26T01:48:05;9.51;;;6.26;;
60336;SDS011;46978;50.288;28.624;2023-06-26T01:49:15;9.29;;;6.16;;
60336;SDS011;46978;50.288;28.624;2023-06-26T01:50:18;9.83;;;6.18;;
60336;SDS011;46978;50.288;28.624;2023-06-26T01:51:27;9.98;;;6.61;;
60336;SDS011;46978;50.288;28.624;2023-06-26T01:53:44;9.56;;;5.91;;
60336;SDS011;46978;50.288;28.624;2023-06-26T01:54:55;10.57;;;6.72;;
60336;SDS011;46978;50.288;28.624;2023-06-26T01:56:12;9.46;;;6.25;;
60336;SDS011;46978;50.288;28.624;2023-06-26T01:57:14;13.54;;;6.90;;
60336;SDS011;46978;50.288;28.624;2023-06-26T01:58:19;9.89;;;6.79;;
60336;SDS011;46978;50.288;28.624;2023-06-26T01:59:23;10.19;;;6.62;;
60336;SDS011;46978;50.288;28.624;2023-06-26T02:00:27;9.04;;;6.49;;
60336;SDS011;46978;50.288;28.624;2023-06-26T02:01:30;8.56;;;6.13;;
60336;SDS011;46978;50.288;28.624;2023-06-26T02:02:31;9.11;;;6.02;;
60336;SDS011;46978;50.288;28.624;2023-06-26T02:03:33;11.85;;;6.40;;
60336;SDS011;46978;50.288;28.624;2023-06-26T02:04:34;10.23;;;7.19;;
60336;SDS011;46978;50.288;28.624;2023-06-26T02:05:36;9.76;;;6.44;;
60336;SDS011;46978;50.288;28.624;2023-06-26T02:06:38;10.86;;;6.31;;
60336;SDS011;46978;50.288;28.624;2023-06-26T02:07:39;8.46;;;6.46;;
60336;SDS011;46978;50.288;28.624;2023-06-26T02:08:42;11.36;;;6.84;;
60336;SDS011;46978;50.288;28.624;2023-06-26T02:09:43;9.93;;;6.86;;
60336;SDS011;46978;50.288;28.624;2023-06-26T02:10:45;9.64;;;6.61;;
60336;SDS011;46978;50.288;28.624;2023-06-26T02:11:47;9.14;;;6.41;;
60336;SDS011;46978;50.288;28.624;2023-06-26T02:12:48;11.77;;;6.93;;
60336;SDS011;46978;50.288;28.624;2023-06-26T02:13:50;10.83;;;7.17;;
60336;SDS011;46978;50.288;28.624;2023-06-26T02:14:51;9.86;;;6.77;;
60336;SDS011;46978;50.288;28.624;2023-06-26T02:15:53;9.61;;;6.79;;
60336;SDS011;46978;50.288;28.624;2023-06-26T02:16:54;9.72;;;6.40;;
60336;SDS011;46978;50.288;28.624;2023-06-26T02:17:56;9.09;;;6.29;;
60336;SDS011;46978;50.288;28.624;2023-06-26T02:18:57;10.34;;;6.13;;
60336;SDS011;46978;50.288;28.624;2023-06-26T02:19:59;11.59;;;6.77;;
60336;SDS011;46978;50.288;28.624;2023-06-26T02:21:02;10.50;;;6.96;;
60336;SDS011;46978;50.288;28.624;2023-06-26T02:22:05;11.38;;;7.24;;
60336;SDS011;46978;50.288;28.624;2023-06-26T02:23:06;9.55;;;6.34;;
60336;SDS011;46978;50.288;28.624;2023-06-26T02:24:08;10.49;;;6.63;;
60336;SDS011;46978;50.288;28.624;2023-06-26T02:25:09;9.31;;;6.53;;
60336;SDS011;46978;50.288;28.624;2023-06-26T02:26:11;12.29;;;7.06;;
60336;SDS011;46978;50.288;28.624;2023-06-26T02:27:13;10.26;;;6.51;;
60336;SDS011;46978;50.288;28.624;2023-06-26T02:28:14;10.71;;;6.89;;
60336;SDS011;46978;50.288;28.624;2023-06-26T02:29:16;9.45;;;6.19;;
60336;SDS011;46978;50.288;28.624;2023-06-26T02:30:18;8.44;;;6.29;;
60336;SDS011;46978;50.288;28.624;2023-06-26T02:31:20;9.86;;;6.56;;
60336;SDS011;46978;50.288;28.624;2023-06-26T02:32:21;9.91;;;6.21;;
60336;SDS011;46978;50.288;28.624;2023-06-26T02:33:23;11.49;;;6.26;;
60336;SDS011;46978;50.288;28.624;2023-06-26T02:34:24;10.55;;;6.21;;
60336;SDS011;46978;50.288;28.624;2023-06-26T02:35:26;10.01;;;6.59;;
60336;SDS011;46978;50.288;28.624;2023-06-26T02:36:28;10.74;;;6.81;;
60336;SDS011;46978;50.288;28.624;2023-06-26T02:37:29;8.97;;;6.18;;
60336;SDS011;46978;50.288;28.624;2023-06-26T02:38:31;9.60;;;6.53;;
60336;SDS011;46978;50.288;28.624;2023-06-26T02:39:33;9.06;;;6.21;;
60336;SDS011;46978;50.288;28.624;2023-06-26T02:40:35;11.31;;;6.59;;
60336;SDS011;46978;50.288;28.624;2023-06-26T02:41:37;9.41;;;6.56;;
60336;SDS011;46978;50.288;28.624;2023-06-26T02:42:39;9.04;;;6.74;;
60336;SDS011;46978;50.288;28.624;2023-06-26T02:43:40;9.86;;;6.56;;
60336;SDS011;46978;50.288;28.624;2023-06-26T02:44:42;9.54;;;6.09;;
60336;SDS011;46978;50.288;28.624;2023-06-26T02:45:43;10.91;;;6.24;;
60336;SDS011;46978;50.288;28.624;2023-06-26T02:46:45;9.53;;;7.05;;
60336;SDS011;46978;50.288;28.624;2023-06-26T02:47:47;11.06;;;7.63;;
60336;SDS011;46978;50.288;28.624;2023-06-26T02:48:48;10.89;;;7.26;;
60336;SDS011;46978;50.288;28.624;2023-06-26T02:49:50;10.75;;;7.58;;
60336;SDS011;46978;50.288;28.624;2023-06-26T02:50:51;9.98;;;7.48;;
60336;SDS011;46978;50.288;28.624;2023-06-26T02:51:53;11.97;;;8.66;;
60336;SDS011;46978;50.288;28.624;2023-06-26T02:52:54;10.38;;;7.01;;
60336;SDS011;46978;50.288;28.624;2023-06-26T02:53:56;11.09;;;8.00;;
60336;SDS011;46978;50.288;28.624;2023-06-26T02:54:57;11.25;;;7.59;;
60336;SDS011;46978;50.288;28.624;2023-06-26T02:55:59;10.49;;;7.44;;
60336;SDS011;46978;50.288;28.624;2023-06-26T02:57:01;10.54;;;7.30;;
60336;SDS011;46978;50.288;28.624;2023-06-26T02:58:02;9.96;;;7.13;;
60336;SDS011;46978;50.288;28.624;2023-06-26T02:59:04;9.58;;;6.60;;
60336;SDS011;46978;50.288;28.624;2023-06-26T03:00:06;11.55;;;6.92;;
60336;SDS011;46978;50.288;28.624;2023-06-26T03:01:09;8.94;;;6.83;;
60336;SDS011;46978;50.288;28.624;2023-06-26T03:02:10;8.70;;;6.53;;
60336;SDS011;46978;50.288;28.624;2023-06-26T03:03:12;8.49;;;6.27;;
60336;SDS011;46978;50.288;28.624;2023-06-26T03:04:14;10.26;;;6.44;;
60336;SDS011;46978;50.288;28.624;2023-06-26T03:05:15;10.59;;;6.66;;
60336;SDS011;46978;50.288;28.624;2023-06-26T03:06:17;9.70;;;6.54;;
60336;SDS011;46978;50.288;28.624;2023-06-26T03:07:18;10.00;;;6.46;;
60336;SDS011;46978;50.288;28.624;2023-06-26T03:08:20;9.43;;;6.40;;
60336;SDS011;46978;50.288;28.624;2023-06-26T03:09:21;8.81;;;6.46;;
60336;SDS011;46978;50.288;28.624;2023-06-26T03:10:23;9.79;;;6.49;;
60336;SDS011;46978;50.288;28.624;2023-06-26T03:11:25;8.87;;;5.96;;
60336;SDS011;46978;50.288;28.624;2023-06-26T03:12:26;7.63;;;5.82;;
60336;SDS011;46978;50.288;28.624;2023-06-26T03:13:28;8.45;;;5.64;;
60336;SDS011;46978;50.288;28.624;2023-06-26T03:14:29;8.41;;;6.06;;
60336;SDS011;46978;50.288;28.624;2023-06-26T03:15:31;9.03;;;5.88;;
60336;SDS011;46978;50.288;28.624;2023-06-26T03:16:32;8.70;;;5.81;;
60336;SDS011;46978;50.288;28.624;2023-06-26T03:17:34;8.03;;;5.85;;
60336;SDS011;46978;50.288;28.624;2023-06-26T03:18:35;9.00;;;6.05;;
60336;SDS011;46978;50.288;28.624;2023-06-26T03:19:37;11.79;;;6.16;;
60336;SDS011;46978;50.288;28.624;2023-06-26T03:20:38;7.69;;;5.95;;
60336;SDS011;46978;50.288;28.624;2023-06-26T03:21:40;8.36;;;5.58;;
60336;SDS011;46978;50.288;28.624;2023-06-26T03:22:42;8.35;;;5.81;;
60336;SDS011;46978;50.288;28.624;2023-06-26T03:23:43;7.96;;;5.27;;
60336;SDS011;46978;50.288;28.624;2023-06-26T03:24:45;9.84;;;5.76;;
60336;SDS011;46978;50.288;28.624;2023-06-26T03:25:47;8.02;;;5.71;;
60336;SDS011;46978;50.288;28.624;2023-06-26T03:26:49;8.90;;;6.01;;
60336;SDS011;46978;50.288;28.624;2023-06-26T03:27:51;8.77;;;5.91;;
60336;SDS011;46978;50.288;28.624;2023-06-26T03:28:53;9.18;;;5.71;;
60336;SDS011;46978;50.288;28.624;2023-06-26T03:29:54;7.57;;;5.19;;
60336;SDS011;46978;50.288;28.624;2023-06-26T03:30:56;8.56;;;5.64;;
60336;SDS011;46978;50.288;28.624;2023-06-26T03:31:58;7.47;;;5.43;;
60336;SDS011;46978;50.288;28.624;2023-06-26T03:32:59;7.66;;;5.21;;
60336;SDS011;46978;50.288;28.624;2023-06-26T03:34:01;8.95;;;5.36;;
60336;SDS011;46978;50.288;28.624;2023-06-26T03:35:02;7.89;;;5.54;;
60336;SDS011;46978;50.288;28.624;2023-06-26T03:36:05;9.81;;;5.31;;
60336;SDS011;46978;50.288;28.624;2023-06-26T03:37:06;7.51;;;5.49;;
60336;SDS011;46978;50.288;28.624;2023-06-26T03:38:08;7.48;;;5.27;;
60336;SDS011;46978;50.288;28.624;2023-06-26T03:39:10;6.80;;;5.16;;
60336;SDS011;46978;50.288;28.624;2023-06-26T03:40:13;7.46;;;4.59;;
60336;SDS011;46978;50.288;28.624;2023-06-26T03:41:15;8.37;;;5.30;;
60336;SDS011;46978;50.288;28.624;2023-06-26T03:42:17;7.73;;;4.80;;
60336;SDS011;46978;50.288;28.624;2023-06-26T03:43:18;6.69;;;4.96;;
60336;SDS011;46978;50.288;28.624;2023-06-26T03:44:22;8.53;;;4.68;;
60336;SDS011;46978;50.288;28.624;2023-06-26T03:45:23;6.62;;;4.98;;
60336;SDS011;46978;50.288;28.624;2023-06-26T03:46:25;6.59;;;4.61;;
60336;SDS011;46978;50.288;28.624;2023-06-26T03:47:27;7.66;;;4.99;;
60336;SDS011;46978;50.288;28.624;2023-06-26T03:48:28;8.32;;;4.61;;
60336;SDS011;46978;50.288;28.624;2023-06-26T03:49:30;8.22;;;4.78;;
60336;SDS011;46978;50.288;28.624;2023-06-26T03:50:31;6.79;;;5.08;;
60336;SDS011;46978;50.288;28.624;2023-06-26T03:51:33;9.09;;;4.61;;
60336;SDS011;46978;50.288;28.624;2023-06-26T03:52:34;6.14;;;4.49;;
60336;SDS011;46978;50.288;28.624;2023-06-26T03:53:36;9.14;;;5.01;;
60336;SDS011;46978;50.288;28.624;2023-06-26T03:54:38;6.02;;;4.19;;
60336;SDS011;46978;50.288;28.624;2023-06-26T03:55:39;6.44;;;4.38;;
60336;SDS011;46978;50.288;28.624;2023-06-26T03:56:41;6.77;;;4.63;;
60336;SDS011;46978;50.288;28.624;2023-06-26T03:57:42;6.39;;;4.18;;
60336;SDS011;46978;50.288;28.624;2023-06-26T03:58:44;6.45;;;4.29;;
60336;SDS011;46978;50.288;28.624;2023-06-26T03:59:45;6.52;;;4.23;;
60336;SDS011;46978;50.288;28.624;2023-06-26T04:00:47;6.61;;;4.28;;
60336;SDS011;46978;50.288;28.624;2023-06-26T04:01:49;6.28;;;4.61;;
60336;SDS011;46978;50.288;28.624;2023-06-26T04:02:50;6.15;;;4.02;;
60336;SDS011;46978;50.288;28.624;2023-06-26T04:03:52;6.15;;;4.07;;
60336;SDS011;46978;50.288;28.624;2023-06-26T04:04:54;7.61;;;4.49;;
60336;SDS011;46978;50.288;28.624;2023-06-26T04:05:55;6.01;;;4.00;;
60336;SDS011;46978;50.288;28.624;2023-06-26T04:06:57;9.64;;;4.35;;
60336;SDS011;46978;50.288;28.624;2023-06-26T04:07:58;6.53;;;3.64;;
60336;SDS011;46978;50.288;28.624;2023-06-26T04:09:00;5.51;;;3.78;;
60336;SDS011;46978;50.288;28.624;2023-06-26T04:10:02;5.31;;;3.98;;
60336;SDS011;46978;50.288;28.624;2023-06-26T04:11:04;6.09;;;3.84;;
60336;SDS011;46978;50.288;28.624;2023-06-26T04:12:05;5.45;;;3.99;;
60336;SDS011;46978;50.288;28.624;2023-06-26T04:13:07;6.05;;;3.94;;
60336;SDS011;46978;50.288;28.624;2023-06-26T04:14:09;7.04;;;3.65;;
60336;SDS011;46978;50.288;28.624;2023-06-26T04:15:10;5.45;;;3.87;;
60336;SDS011;46978;50.288;28.624;2023-06-26T04:16:12;5.99;;;3.67;;
60336;SDS011;46978;50.288;28.624;2023-06-26T04:17:14;5.79;;;3.92;;
60336;SDS011;46978;50.288;28.624;2023-06-26T04:18:16;5.60;;;3.56;;
60336;SDS011;46978;50.288;28.624;2023-06-26T04:19:17;6.26;;;3.74;;
60336;SDS011;46978;50.288;28.624;2023-06-26T04:20:19;5.55;;;3.63;;
60336;SDS011;46978;50.288;28.624;2023-06-26T04:21:20;6.18;;;3.61;;
60336;SDS011;46978;50.288;28.624;2023-06-26T04:22:22;5.27;;;3.51;;
60336;SDS011;46978;50.288;28.624;2023-06-26T04:23:24;6.89;;;3.85;;
60336;SDS011;46978;50.288;28.624;2023-06-26T04:24:25;6.77;;;3.71;;
60336;SDS011;46978;50.288;28.624;2023-06-26T04:25:27;5.90;;;3.28;;
60336;SDS011;46978;50.288;28.624;2023-06-26T04:26:29;5.15;;;3.46;;
60336;SDS011;46978;50.288;28.624;2023-06-26T04:27:30;6.57;;;3.46;;
60336;SDS011;46978;50.288;28.624;2023-06-26T04:28:32;4.58;;;3.13;;
60336;SDS011;46978;50.288;28.624;2023-06-26T04:29:34;6.05;;;3.54;;
60336;SDS011;46978;50.288;28.624;2023-06-26T04:30:36;6.69;;;3.42;;
60336;SDS011;46978;50.288;28.624;2023-06-26T04:31:38;6.56;;;3.97;;
60336;SDS011;46978;50.288;28.624;2023-06-26T04:32:40;5.59;;;3.32;;
60336;SDS011;46978;50.288;28.624;2023-06-26T04:33:41;5.71;;;3.33;;
60336;SDS011;46978;50.288;28.624;2023-06-26T04:34:43;5.12;;;3.24;;
60336;SDS011;46978;50.288;28.624;2023-06-26T04:35:44;4.55;;;3.14;;
60336;SDS011;46978;50.288;28.624;2023-06-26T04:36:46;5.70;;;3.20;;
60336;SDS011;46978;50.288;28.624;2023-06-26T04:37:48;5.23;;;2.96;;
60336;SDS011;46978;50.288;28.624;2023-06-26T04:38:49;4.79;;;3.13;;
60336;SDS011;46978;50.288;28.624;2023-06-26T04:39:51;5.40;;;3.36;;
60336;SDS011;46978;50.288;28.624;2023-06-26T04:40:53;5.82;;;3.21;;
60336;SDS011;46978;50.288;28.624;2023-06-26T04:41:54;5.11;;;3.32;;
60336;SDS011;46978;50.288;28.624;2023-06-26T04:42:56;5.51;;;2.77;;
60336;SDS011;46978;50.288;28.624;2023-06-26T04:43:57;5.40;;;2.91;;
60336;SDS011;46978;50.288;28.624;2023-06-26T04:44:59;5.26;;;3.09;;
60336;SDS011;46978;50.288;28.624;2023-06-26T04:46:01;4.41;;;2.84;;
60336;SDS011;46978;50.288;28.624;2023-06-26T04:47:04;5.50;;;2.71;;
60336;SDS011;46978;50.288;28.624;2023-06-26T04:48:05;3.72;;;2.64;;
60336;SDS011;46978;50.288;28.624;2023-06-26T04:49:10;4.76;;;3.00;;
60336;SDS011;46978;50.288;28.624;2023-06-26T04:50:12;4.79;;;3.07;;
60336;SDS011;46978;50.288;28.624;2023-06-26T04:51:14;4.92;;;2.83;;
60336;SDS011;46978;50.288;28.624;2023-06-26T04:52:16;4.31;;;3.15;;
60336;SDS011;46978;50.288;28.624;2023-06-26T04:53:17;4.34;;;2.61;;
60336;SDS011;46978;50.288;28.624;2023-06-26T04:54:19;4.61;;;2.56;;
60336;SDS011;46978;50.288;28.624;2023-06-26T04:55:20;4.93;;;2.49;;
60336;SDS011;46978;50.288;28.624;2023-06-26T04:56:22;4.53;;;2.69;;
60336;SDS011;46978;50.288;28.624;2023-06-26T04:57:24;4.37;;;2.72;;
60336;SDS011;46978;50.288;28.624;2023-06-26T04:58:25;6.79;;;2.86;;
60336;SDS011;46978;50.288;28.624;2023-06-26T04:59:27;6.03;;;2.61;;
60336;SDS011;46978;50.288;28.624;2023-06-26T05:00:28;4.49;;;2.53;;
60336;SDS011;46978;50.288;28.624;2023-06-26T05:01:32;5.03;;;2.62;;
60336;SDS011;46978;50.288;28.624;2023-06-26T05:02:34;5.86;;;2.77;;
60336;SDS011;46978;50.288;28.624;2023-06-26T05:03:36;5.89;;;2.89;;
60336;SDS011;46978;50.288;28.624;2023-06-26T05:04:37;4.16;;;2.47;;
60336;SDS011;46978;50.288;28.624;2023-06-26T05:05:39;4.49;;;2.34;;
60336;SDS011;46978;50.288;28.624;2023-06-26T05:06:41;5.40;;;2.75;;
60336;SDS011;46978;50.288;28.624;2023-06-26T05:07:42;5.71;;;2.97;;
60336;SDS011;46978;50.288;28.624;2023-06-26T05:08:44;3.94;;;2.41;;
60336;SDS011;46978;50.288;28.624;2023-06-26T05:09:45;5.28;;;2.64;;
60336;SDS011;46978;50.288;28.624;2023-06-26T05:10:47;4.29;;;2.68;;
60336;SDS011;46978;50.288;28.624;2023-06-26T05:11:49;5.33;;;2.47;;
60336;SDS011;46978;50.288;28.624;2023-06-26T05:12:51;4.76;;;2.78;;
60336;SDS011;46978;50.288;28.624;2023-06-26T05:13:52;5.74;;;2.69;;
60336;SDS011;46978;50.288;28.624;2023-06-26T05:14:54;4.94;;;2.53;;
60336;SDS011;46978;50.288;28.624;2023-06-26T05:15:56;4.69;;;2.64;;
60336;SDS011;46978;50.288;28.624;2023-06-26T05:16:57;5.24;;;2.56;;
60336;SDS011;46978;50.288;28.624;2023-06-26T05:17:59;4.64;;;2.65;;
60336;SDS011;46978;50.288;28.624;2023-06-26T05:19:00;4.43;;;2.49;;
60336;SDS011;46978;50.288;28.624;2023-06-26T05:20:03;4.19;;;2.36;;
60336;SDS011;46978;50.288;28.624;2023-06-26T05:21:05;5.99;;;2.55;;
60336;SDS011;46978;50.288;28.624;2023-06-26T05:22:07;4.05;;;2.49;;
60336;SDS011;46978;50.288;28.624;2023-06-26T05:23:14;4.27;;;2.39;;
60336;SDS011;46978;50.288;28.624;2023-06-26T05:24:14;3.89;;;2.46;;
60336;SDS011;46978;50.288;28.624;2023-06-26T05:25:18;4.93;;;2.71;;
60336;SDS011;46978;50.288;28.624;2023-06-26T05:26:20;4.16;;;2.24;;
60336;SDS011;46978;50.288;28.624;2023-06-26T05:27:22;4.16;;;2.45;;
60336;SDS011;46978;50.288;28.624;2023-06-26T05:28:24;5.04;;;2.69;;
60336;SDS011;46978;50.288;28.624;2023-06-26T05:29:27;4.57;;;2.37;;
60336;SDS011;46978;50.288;28.624;2023-06-26T05:30:29;4.34;;;2.31;;
60336;SDS011;46978;50.288;28.624;2023-06-26T05:31:32;4.44;;;2.38;;
60336;SDS011;46978;50.288;28.624;2023-06-26T05:32:37;4.37;;;2.07;;
60336;SDS011;46978;50.288;28.624;2023-06-26T05:33:42;4.57;;;2.45;;
60336;SDS011;46978;50.288;28.624;2023-06-26T05:34:48;6.06;;;2.33;;
60336;SDS011;46978;50.288;28.624;2023-06-26T05:35:53;3.92;;;2.46;;
60336;SDS011;46978;50.288;28.624;2023-06-26T05:36:57;4.57;;;2.52;;
60336;SDS011;46978;50.288;28.624;2023-06-26T05:37:59;4.10;;;2.31;;
60336;SDS011;46978;50.288;28.624;2023-06-26T05:39:02;4.27;;;2.43;;
60336;SDS011;46978;50.288;28.624;2023-06-26T05:40:05;4.73;;;2.44;;
60336;SDS011;46978;50.288;28.624;2023-06-26T05:41:07;3.97;;;2.44;;
60336;SDS011;46978;50.288;28.624;2023-06-26T05:42:10;6.13;;;2.66;;
60336;SDS011;46978;50.288;28.624;2023-06-26T05:43:13;4.10;;;2.13;;
60336;SDS011;46978;50.288;28.624;2023-06-26T05:44:15;4.25;;;2.32;;
60336;SDS011;46978;50.288;28.624;2023-06-26T05:45:16;3.92;;;2.49;;
60336;SDS011;46978;50.288;28.624;2023-06-26T05:46:18;5.49;;;3.76;;
60336;SDS011;46978;50.288;28.624;2023-06-26T05:47:20;4.11;;;2.39;;
60336;SDS011;46978;50.288;28.624;2023-06-26T05:48:22;4.06;;;2.11;;
60336;SDS011;46978;50.288;28.624;2023-06-26T05:49:23;4.09;;;2.25;;
60336;SDS011;46978;50.288;28.624;2023-06-26T05:50:25;3.73;;;2.25;;
60336;SDS011;46978;50.288;28.624;2023-06-26T05:51:28;3.69;;;2.25;;
60336;SDS011;46978;50.288;28.624;2023-06-26T05:52:30;5.31;;;2.43;;
60336;SDS011;46978;50.288;28.624;2023-06-26T05:53:32;5.22;;;2.32;;
60336;SDS011;46978;50.288;28.624;2023-06-26T05:54:35;4.09;;;2.41;;
60336;SDS011;46978;50.288;28.624;2023-06-26T05:55:37;4.60;;;2.76;;
60336;SDS011;46978;50.288;28.624;2023-06-26T05:56:39;4.42;;;2.74;;
60336;SDS011;46978;50.288;28.624;2023-06-26T05:57:41;4.96;;;2.57;;
60336;SDS011;46978;50.288;28.624;2023-06-26T05:58:44;5.16;;;2.91;;
60336;SDS011;46978;50.288;28.624;2023-06-26T05:59:47;4.43;;;2.77;;
60336;SDS011;46978;50.288;28.624;2023-06-26T06:00:49;4.46;;;2.59;;
60336;SDS011;46978;50.288;28.624;2023-06-26T06:01:51;5.73;;;2.49;;
60336;SDS011;46978;50.288;28.624;2023-06-26T06:02:53;5.26;;;2.51;;
60336;SDS011;46978;50.288;28.624;2023-06-26T06:03:54;4.57;;;2.65;;
60336;SDS011;46978;50.288;28.624;2023-06-26T06:04:56;4.38;;;2.55;;
60336;SDS011;46978;50.288;28.624;2023-06-26T06:05:58;4.58;;;2.50;;
60336;SDS011;46978;50.288;28.624;2023-06-26T06:06:59;5.75;;;2.69;;
60336;SDS011;46978;50.288;28.624;2023-06-26T06:08:01;4.76;;;2.77;;
60336;SDS011;46978;50.288;28.624;2023-06-26T06:09:03;4.50;;;2.86;;
60336;SDS011;46978;50.288;28.624;2023-06-26T06:10:05;5.17;;;2.61;;
60336;SDS011;46978;50.288;28.624;2023-06-26T06:11:06;4.11;;;2.65;;
60336;SDS011;46978;50.288;28.624;2023-06-26T06:12:08;5.14;;;2.99;;
60336;SDS011;46978;50.288;28.624;2023-06-26T06:13:10;5.23;;;2.89;;